Time;durP1;ratioP1;P1;durP2;ratioP2;P2;SDS_P1;SDS_P2;PMS_P1;PMS_P2;Temp;Humidity;BMP_temperature;BMP_pressure;BME280_temperature;BME280_humidity;BME280_pressure;Samples;Min_cycle;Max_cycle;Signal;HPM_P1;HPM_P2
2021/05/26 00:00:10;;;;;;;1.83;1.00;;;;;;;11.28;69.44;98974.03;5109581;28;42981;-79
2021/05/26 00:02:37;;;;;;;1.77;0.90;;;;;;;11.27;69.47;98975.00;5098113;28;40620;-78
2021/05/26 00:05:06;;;;;;;2.37;0.80;;;;;;;11.27;69.51;98969.69;5076668;28;40609;-78
2021/05/26 00:07:34;;;;;;;2.20;0.90;;;;;;;11.26;69.63;98967.97;5094887;28;42683;-78
2021/05/26 00:10:02;;;;;;;4.10;1.10;;;;;;;11.25;69.00;98965.47;5110070;28;43037;-79
2021/05/26 00:12:29;;;;;;;2.40;1.10;;;;;;;11.20;69.07;98947.19;5094178;28;39637;-79
2021/05/26 00:14:57;;;;;;;2.50;0.93;;;;;;;11.21;68.54;98955.97;5094024;28;42334;-79
2021/05/26 00:17:24;;;;;;;2.83;1.13;;;;;;;11.29;68.27;98966.94;5101237;28;41879;-77
2021/05/26 00:19:51;;;;;;;4.07;1.20;;;;;;;11.32;68.56;98972.06;5088978;28;42289;-78
2021/05/26 00:22:18;;;;;;;3.40;1.00;;;;;;;11.30;68.57;98958.03;5106504;28;39986;-76
2021/05/26 00:24:47;;;;;;;1.43;0.80;;;;;;;11.30;68.53;98956.25;5088699;28;41575;-79
2021/05/26 00:27:14;;;;;;;2.90;0.90;;;;;;;11.33;68.34;98963.16;5090206;28;43459;-78
2021/05/26 00:29:42;;;;;;;1.23;0.87;;;;;;;11.32;68.37;98957.00;5089177;28;42327;-78
2021/05/26 00:32:09;;;;;;;3.53;1.20;;;;;;;11.32;68.57;98945.53;5074609;28;39893;-77
2021/05/26 00:34:36;;;;;;;1.50;0.80;;;;;;;11.30;69.02;98952.75;5088521;28;41547;-77
2021/05/26 00:37:04;;;;;;;2.00;0.90;;;;;;;11.26;68.70;98952.06;5088848;28;42815;-80
2021/05/26 00:39:31;;;;;;;1.80;0.80;;;;;;;11.26;69.18;98951.22;5089122;28;41251;-78
2021/05/26 00:41:59;;;;;;;2.97;1.20;;;;;;;11.24;69.52;98950.50;5087929;28;41015;-78
2021/05/26 00:44:26;;;;;;;3.07;1.17;;;;;;;11.24;69.36;98937.25;5072846;28;40813;-79
2021/05/26 00:46:54;;;;;;;2.37;0.97;;;;;;;11.26;69.44;98941.47;5087630;28;41889;-78
2021/05/26 00:49:22;;;;;;;2.23;1.17;;;;;;;11.27;69.68;98937.03;5088718;28;42151;-78
2021/05/26 00:51:50;;;;;;;2.13;1.20;;;;;;;11.31;69.82;98938.53;5090100;28;39526;-79
2021/05/26 00:54:18;;;;;;;2.00;1.10;;;;;;;11.29;69.77;98929.81;5088709;28;41386;-77
2021/05/26 00:56:48;;;;;;;2.27;1.40;;;;;;;11.31;69.49;98938.53;5089320;28;43550;-78
2021/05/26 00:59:16;;;;;;;2.80;1.17;;;;;;;11.26;69.15;98924.72;5071015;28;43069;-78
2021/05/26 01:01:44;;;;;;;2.20;0.90;;;;;;;11.23;69.35;98911.69;5088387;28;39483;-79
2021/05/26 01:04:11;;;;;;;3.60;1.50;;;;;;;11.21;69.76;98905.63;5084941;28;40746;-76
2021/05/26 01:06:44;;;;;;;1.60;1.03;;;;;;;11.33;69.63;98926.88;5072114;28;42668;-77
2021/05/26 01:09:12;;;;;;;4.40;1.27;;;;;;;11.33;69.44;98926.03;5122723;27;41909;-77
2021/05/26 01:11:39;;;;;;;2.87;1.20;;;;;;;11.35;69.18;98922.34;5105323;28;39054;-77
2021/05/26 01:14:06;;;;;;;2.70;1.20;;;;;;;11.32;69.08;98919.03;5071270;28;41754;-78
2021/05/26 01:16:35;;;;;;;4.00;0.83;;;;;;;11.39;68.84;98925.63;5088437;28;43300;-79
2021/05/26 01:19:02;;;;;;;2.00;1.07;;;;;;;11.39;69.03;98926.47;5096326;28;42266;-77
2021/05/26 01:21:31;;;;;;;1.73;0.90;;;;;;;11.39;68.81;98925.63;5122347;27;39752;-76
2021/05/26 01:23:59;;;;;;;4.27;1.53;;;;;;;11.40;69.01;98922.03;5089305;28;42399;-80
2021/05/26 01:26:31;;;;;;;1.20;0.90;;;;;;;11.26;68.94;98901.69;5071955;28;42145;-77
2021/05/26 01:28:59;;;;;;;3.20;1.13;;;;;;;11.33;68.40;98907.47;5070817;28;41678;-77
2021/05/26 01:31:27;;;;;;;2.33;1.33;;;;;;;11.37;68.27;98911.66;5087288;28;40894;-79
2021/05/26 01:34:05;;;;;;;2.57;1.17;;;;;;;11.38;67.99;98908.00;5070087;28;40739;-79
2021/05/26 01:36:41;;;;;;;1.27;0.80;;;;;;;11.35;68.21;98902.94;5088300;28;42081;-79
2021/05/26 01:39:10;;;;;;;1.60;1.07;;;;;;;11.33;68.25;98900.38;5089395;28;41966;-77
2021/05/26 01:41:37;;;;;;;3.83;1.50;;;;;;;11.29;68.47;98904.16;5089633;28;39860;-78
2021/05/26 01:44:05;;;;;;;2.70;1.10;;;;;;;11.24;68.34;98898.31;5087698;28;40808;-79
2021/05/26 01:46:33;;;;;;;1.97;1.10;;;;;;;11.21;68.39;98900.31;5088255;28;42929;-76
2021/05/26 01:49:01;;;;;;;2.23;1.13;;;;;;;11.19;68.42;98891.59;5090562;28;42365;-78
2021/05/26 01:51:28;;;;;;;1.67;1.00;;;;;;;11.15;69.06;98890.94;5075121;28;39061;-78
2021/05/26 01:53:57;;;;;;;1.37;0.83;;;;;;;11.11;68.79;98884.16;5108635;28;42704;-79
2021/05/26 01:56:27;;;;;;;3.27;1.20;;;;;;;11.08;68.58;98885.19;5112075;28;41167;-76
2021/05/26 01:59:09;;;;;;;1.60;1.07;;;;;;;11.04;69.07;98877.53;5111367;28;42471;-78
2021/05/26 02:01:36;;;;;;;2.70;1.40;;;;;;;11.01;69.09;98867.97;5100828;28;40028;-78
2021/05/26 02:04:08;;;;;;;1.90;1.00;;;;;;;10.98;68.83;98867.34;5125300;27;41393;-77
2021/05/26 02:06:35;;;;;;;1.77;1.10;;;;;;;10.97;68.71;98868.28;5074341;28;42705;-77
2021/05/26 02:09:04;;;;;;;3.80;1.37;;;;;;;10.95;68.82;98860.44;5140442;27;42919;-78
2021/05/26 02:14:20;;;;;;;3.10;1.20;;;;;;;10.90;68.46;98865.16;5093911;28;42034;-78
2021/05/26 02:16:47;;;;;;;2.00;1.20;;;;;;;10.90;68.44;98867.81;5121907;27;41899;-79
2021/05/26 02:19:15;;;;;;;1.30;0.83;;;;;;;10.92;68.45;98865.06;5124084;27;42728;-78
2021/05/26 02:21:44;;;;;;;3.90;0.93;;;;;;;10.94;68.39;98856.06;5073544;28;40846;-78
2021/05/26 02:24:11;;;;;;;2.67;1.50;;;;;;;10.94;68.56;98856.06;5102644;28;42371;-81
2021/05/26 02:26:39;;;;;;;4.03;1.07;;;;;;;10.94;68.54;98849.94;5110586;28;42854;-80
2021/05/26 02:29:08;;;;;;;3.83;1.00;;;;;;;10.87;68.27;98841.53;5111784;28;42208;-78
2021/05/26 02:31:38;;;;;;;2.70;0.80;;;;;;;10.82;68.43;98825.06;5143708;27;40791;-77
2021/05/26 02:34:05;;;;;;;1.50;1.20;;;;;;;10.92;68.66;98855.31;5090446;28;41870;-77
2021/05/26 02:36:33;;;;;;;1.37;0.90;;;;;;;10.91;68.56;98853.63;5092540;28;43190;-79
2021/05/26 02:39:00;;;;;;;2.73;1.10;;;;;;;10.91;68.05;98844.81;5116128;27;41412;-80
2021/05/26 02:41:28;;;;;;;1.33;1.23;;;;;;;10.88;68.15;98840.56;5094984;28;39286;-77
2021/05/26 02:43:56;;;;;;;1.10;1.00;;;;;;;10.86;68.05;98834.53;5093349;28;40668;-79
2021/05/26 02:46:24;;;;;;;1.53;1.00;;;;;;;10.85;68.30;98829.34;5129153;27;42516;-78
2021/05/26 02:48:52;;;;;;;1.67;1.03;;;;;;;10.81;68.46;98828.66;5075857;28;41640;-79
2021/05/26 02:51:20;;;;;;;3.70;1.30;;;;;;;10.81;68.15;98833.97;5089681;28;39828;-78
2021/05/26 02:53:47;;;;;;;1.80;1.00;;;;;;;10.79;68.59;98828.75;5090802;28;40542;-79
2021/05/26 02:56:16;;;;;;;3.33;1.03;;;;;;;10.86;68.48;98839.84;5090672;28;42710;-77
2021/05/26 02:59:04;;;;;;;2.80;1.00;;;;;;;10.89;68.50;98842.25;5092025;28;43028;-77
2021/05/26 03:01:54;;;;;;;2.53;1.13;;;;;;;10.92;68.42;98831.47;5090978;27;40414;-78
2021/05/26 03:04:30;;;;;;;2.00;1.23;;;;;;;10.93;68.02;98838.47;5093466;28;42055;-77
2021/05/26 03:06:57;;;;;;;2.17;0.83;;;;;;;10.94;68.52;98834.88;5113964;27;41974;-79
2021/05/26 03:09:25;;;;;;;3.10;1.10;;;;;;;10.91;68.49;98824.47;5123501;27;42340;-79
2021/05/26 03:11:55;;;;;;;2.93;1.40;;;;;;;10.86;69.41;98821.28;5072694;28;39795;-78
2021/05/26 03:14:47;;;;;;;3.07;1.37;;;;;;;10.82;69.30;98825.06;5089297;28;41184;-79
2021/05/26 03:17:15;;;;;;;2.90;1.00;;;;;;;10.76;69.41;98817.50;5093065;28;41748;-76
2021/05/26 03:19:43;;;;;;;3.73;1.40;;;;;;;10.71;69.80;98811.66;5110257;28;42292;-79
2021/05/26 03:22:28;;;;;;;4.27;1.50;;;;;;;10.68;70.31;98807.41;5095809;28;38838;-79
2021/05/26 03:25:16;;;;;;;2.80;1.10;;;;;;;10.67;70.05;98807.50;5078836;28;41917;-77
2021/05/26 03:27:49;;;;;;;4.00;1.43;;;;;;;10.68;70.48;98811.84;5089405;28;43592;-79
2021/05/26 03:30:19;;;;;;;2.27;1.20;;;;;;;10.70;70.42;98809.97;5097250;28;42721;-78
2021/05/26 03:32:47;;;;;;;2.23;1.37;;;;;;;10.73;70.06;98821.22;5110410;28;39952;-78
2021/05/26 03:35:16;;;;;;;1.07;0.97;;;;;;;10.74;70.39;98811.47;5111523;27;41544;-77
2021/05/26 03:37:44;;;;;;;1.60;1.37;;;;;;;10.80;70.01;98819.03;5111967;27;42775;-78
2021/05/26 03:40:15;;;;;;;3.00;1.23;;;;;;;10.84;70.09;98817.03;5123840;27;42244;-77
2021/05/26 03:42:47;;;;;;;3.17;1.30;;;;;;;10.78;69.86;98805.88;5090312;28;39931;-79
2021/05/26 03:45:30;;;;;;;2.10;1.23;;;;;;;10.85;70.04;98818.72;5073459;28;40836;-79
2021/05/26 03:47:58;;;;;;;2.30;1.07;;;;;;;10.82;70.34;98811.81;5089803;28;43166;-79
2021/05/26 03:50:27;;;;;;;1.73;1.00;;;;;;;10.84;70.10;98811.72;5105401;28;40879;-79
2021/05/26 03:52:57;;;;;;;2.67;1.27;;;;;;;10.82;70.21;98809.19;5143642;27;39670;-78
2021/05/26 03:55:25;;;;;;;2.37;1.10;;;;;;;10.80;70.73;98817.22;5091612;28;40882;-81
2021/05/26 03:57:58;;;;;;;3.70;1.53;;;;;;;10.67;70.63;98791.63;5089272;28;43576;-80
2021/05/26 04:00:25;;;;;;;2.63;1.30;;;;;;;10.78;70.38;98800.56;5107363;28;42619;-81
2021/05/26 04:03:14;;;;;;;3.03;1.40;;;;;;;10.76;71.70;98809.56;5093299;28;39866;-81
2021/05/26 04:05:41;;;;;;;3.10;1.47;;;;;;;10.73;71.18;98807.13;5142003;27;42504;-78
2021/05/26 04:08:09;;;;;;;3.90;1.50;;;;;;;10.73;71.66;98809.78;5109245;28;42470;-77
2021/05/26 04:10:38;;;;;;;4.43;1.50;;;;;;;10.67;71.30;98805.72;5126448;27;40987;-80
2021/05/26 04:13:19;;;;;;;3.33;1.50;;;;;;;10.47;71.96;98782.28;5126052;27;38744;-77
2021/05/26 04:15:55;;;;;;;2.93;1.20;;;;;;;10.48;72.06;98777.84;5095519;28;41829;-78
2021/05/26 04:18:43;;;;;;;4.83;1.60;;;;;;;10.58;71.74;98790.41;5089389;28;41731;-78
2021/05/26 04:21:10;;;;;;;2.57;1.33;;;;;;;10.60;71.72;98787.66;5088780;28;42397;-77
2021/05/26 04:23:37;;;;;;;2.03;1.10;;;;;;;10.52;71.78;98769.59;5076954;28;38968;-79
2021/05/26 04:26:04;;;;;;;2.40;1.20;;;;;;;10.67;71.88;98783.66;5110172;27;41546;-78
2021/05/26 04:28:32;;;;;;;2.87;1.40;;;;;;;10.68;72.35;98775.63;5092678;28;43082;-78
2021/05/26 04:30:59;;;;;;;3.53;1.33;;;;;;;10.71;72.56;98771.94;5097993;28;41528;-77
2021/05/26 04:33:29;;;;;;;5.40;1.73;;;;;;;10.72;72.37;98765.69;5089166;28;39028;-78
2021/05/26 04:35:57;;;;;;;2.17;1.23;;;;;;;10.68;72.43;98756.22;5088664;28;41670;-78
2021/05/26 04:38:25;;;;;;;5.27;1.53;;;;;;;10.73;72.46;98757.66;5071883;28;42815;-79
2021/05/26 04:40:53;;;;;;;3.17;1.20;;;;;;;10.77;71.92;98752.97;5088249;28;40878;-78
2021/05/26 04:43:20;;;;;;;3.50;1.83;;;;;;;10.81;72.03;98749.19;5071975;28;38932;-78
2021/05/26 04:45:47;;;;;;;2.20;1.10;;;;;;;10.86;72.17;98736.50;5093834;28;41614;-78
2021/05/26 04:48:15;;;;;;;2.97;1.40;;;;;;;11.04;72.03;98756.47;5106887;28;41973;-78
2021/05/26 04:50:42;;;;;;;1.40;1.10;;;;;;;11.14;71.69;98752.28;5088418;28;41885;-78
2021/05/26 04:53:10;;;;;;;3.93;1.33;;;;;;;11.25;71.55;98759.50;5104586;28;40065;-78
2021/05/26 04:55:37;;;;;;;5.93;1.40;;;;;;;11.26;71.66;98731.19;5104204;28;42312;-78
2021/05/26 04:58:06;;;;;;;1.80;1.40;;;;;;;11.39;71.48;98745.31;5109587;27;43538;-79
2021/05/26 05:00:34;;;;;;;1.83;1.30;;;;;;;11.43;70.70;98752.13;5091341;28;41281;-78
2021/05/26 05:03:01;;;;;;;3.67;1.20;;;;;;;11.46;70.64;98755.44;5071252;28;40033;-78
2021/05/26 05:05:31;;;;;;;1.90;1.60;;;;;;;11.57;70.96;98746.75;5088772;28;42299;-78
2021/05/26 05:07:59;;;;;;;4.97;1.27;;;;;;;11.62;70.56;98744.59;5071218;28;41573;-78
2021/05/26 05:10:27;;;;;;;3.50;1.40;;;;;;;11.73;70.73;98749.19;5098531;28;42159;-78
2021/05/26 05:12:55;;;;;;;2.47;1.10;;;;;;;11.79;70.33;98743.50;5108799;27;41075;-78
2021/05/26 05:15:22;;;;;;;1.83;1.17;;;;;;;11.87;70.47;98742.00;5109879;27;41372;-78
2021/05/26 05:17:51;;;;;;;2.33;1.10;;;;;;;11.96;70.71;98739.66;5093526;27;42134;-78
2021/05/26 05:20:20;;;;;;;5.30;1.63;;;;;;;11.98;69.94;98743.06;5090202;28;42932;-77
2021/05/26 05:22:47;;;;;;;1.40;1.30;;;;;;;11.96;70.36;98739.66;5087510;28;40178;-78
2021/05/26 05:25:14;;;;;;;3.37;1.70;;;;;;;12.04;70.39;98732.00;5092860;28;41811;-76
2021/05/26 05:27:42;;;;;;;3.57;1.53;;;;;;;12.06;70.52;98733.59;5108243;28;42948;-78
2021/05/26 05:30:11;;;;;;;2.73;1.20;;;;;;;12.01;70.51;98738.38;5091234;28;41365;-77
2021/05/26 05:32:39;;;;;;;4.33;1.30;;;;;;;11.95;70.18;98727.34;5096844;28;39789;-80
2021/05/26 05:35:07;;;;;;;2.80;1.70;;;;;;;11.86;70.24;98737.66;5088509;28;41466;-77
2021/05/26 05:37:34;;;;;;;4.23;1.60;;;;;;;11.82;70.39;98733.53;5071560;28;42419;-78
2021/05/26 05:40:02;;;;;;;3.07;1.20;;;;;;;11.77;70.72;98737.44;5121059;27;42312;-78
2021/05/26 05:42:29;;;;;;;2.47;1.37;;;;;;;11.73;71.28;98731.47;5088390;28;40461;-78
2021/05/26 05:44:57;;;;;;;4.20;1.40;;;;;;;11.66;71.41;98727.53;5071276;28;41318;-77
2021/05/26 05:47:24;;;;;;;2.13;1.20;;;;;;;11.64;71.59;98732.09;5094451;28;42015;-79
2021/05/26 05:49:52;;;;;;;3.97;1.63;;;;;;;11.61;71.54;98719.06;5141440;27;41827;-78
2021/05/26 05:52:19;;;;;;;3.93;1.40;;;;;;;11.57;71.83;98729.97;5108249;28;39860;-79
2021/05/26 05:54:46;;;;;;;1.57;1.00;;;;;;;11.53;72.00;98747.91;5092044;28;40928;-79
2021/05/26 05:57:13;;;;;;;5.03;1.30;;;;;;;11.53;71.71;98747.91;5093744;27;42653;-78
2021/05/26 05:59:40;;;;;;;2.10;1.27;;;;;;;11.56;71.47;98737.09;5070723;28;41525;-79
2021/05/26 06:02:08;;;;;;;1.70;0.93;;;;;;;11.56;71.69;98742.38;5088064;28;39391;-79
2021/05/26 06:04:35;;;;;;;2.20;1.00;;;;;;;11.52;72.04;98743.53;5082650;28;42118;-78
2021/05/26 06:07:03;;;;;;;1.63;1.00;;;;;;;11.52;72.13;98735.59;5100844;28;43494;-78
2021/05/26 06:09:30;;;;;;;2.73;1.10;;;;;;;11.56;71.99;98731.78;5095974;28;41993;-79
2021/05/26 06:11:57;;;;;;;1.10;1.00;;;;;;;11.59;72.38;98726.28;5104134;28;39744;-77
2021/05/26 06:14:24;;;;;;;2.47;1.60;;;;;;;11.56;72.16;98715.88;5105350;27;42171;-80
2021/05/26 06:16:52;;;;;;;2.90;1.13;;;;;;;11.66;72.11;98722.22;5087574;28;41796;-79
2021/05/26 06:19:19;;;;;;;2.20;0.87;;;;;;;11.71;71.89;98709.50;5104479;27;41934;-78
2021/05/26 06:21:47;;;;;;;1.57;1.00;;;;;;;11.76;72.18;98712.72;5103916;28;39839;-78
2021/05/26 06:24:14;;;;;;;2.73;1.00;;;;;;;11.84;71.91;98702.44;5104449;27;41660;-79
2021/05/26 06:26:41;;;;;;;2.70;1.20;;;;;;;11.90;71.77;98700.28;5085800;28;42877;-79
2021/05/26 06:29:08;;;;;;;2.40;1.07;;;;;;;12.03;71.60;98703.78;5103595;27;41941;-79
2021/05/26 06:31:35;;;;;;;2.03;1.17;;;;;;;11.98;71.59;98676.72;5102811;28;40381;-79
2021/05/26 06:34:02;;;;;;;2.90;1.50;;;;;;;12.18;71.06;98702.69;5103460;27;41637;-78
2021/05/26 06:36:33;;;;;;;3.87;2.13;;;;;;;12.21;70.91;98702.47;5107546;27;42936;-80
2021/05/26 06:39:00;;;;;;;2.20;1.27;;;;;;;12.18;71.13;98677.00;5099650;28;41151;-80
2021/05/26 06:41:27;;;;;;;1.93;1.33;;;;;;;12.34;70.61;98692.66;5108837;27;39981;-78
2021/05/26 06:43:54;;;;;;;3.27;1.50;;;;;;;12.41;71.11;98693.91;5098791;28;40979;-79
2021/05/26 06:46:22;;;;;;;2.87;1.20;;;;;;;12.49;70.92;98699.50;5108229;28;42599;-79
2021/05/26 06:48:49;;;;;;;1.70;1.00;;;;;;;12.58;71.28;98695.34;5105593;27;42214;-79
2021/05/26 06:51:16;;;;;;;1.83;1.17;;;;;;;12.75;70.10;98696.75;5088034;28;38918;-79
2021/05/26 06:53:44;;;;;;;3.57;1.37;;;;;;;12.98;70.19;98693.25;5105745;28;41552;-79
2021/05/26 06:56:11;;;;;;;4.57;1.33;;;;;;;13.37;69.78;98689.41;5106736;27;42535;-78
2021/05/26 06:58:39;;;;;;;4.87;1.37;;;;;;;13.96;68.01;98698.09;5107413;27;42320;-78
2021/05/26 07:01:06;;;;;;;2.20;1.10;;;;;;;14.41;67.03;98682.09;5108256;27;39661;-77
2021/05/26 07:03:33;;;;;;;2.90;1.40;;;;;;;14.88;65.65;98699.50;5105840;28;41624;-83
2021/05/26 07:06:00;;;;;;;4.17;1.10;;;;;;;15.30;64.52;98697.75;5106910;27;43429;-78
2021/05/26 07:08:27;;;;;;;2.50;1.20;;;;;;;15.58;64.13;98695.47;5105869;28;42188;-78
2021/05/26 07:10:55;;;;;;;4.17;1.20;;;;;;;15.36;62.89;98691.91;5105083;28;39265;-78
2021/05/26 07:13:23;;;;;;;2.57;1.20;;;;;;;15.04;62.70;98691.09;5089809;28;41142;-77
2021/05/26 07:15:50;;;;;;;3.73;1.40;;;;;;;14.96;63.56;98690.91;5106512;28;41703;-78
2021/05/26 07:18:17;;;;;;;3.33;1.00;;;;;;;14.86;64.20;98687.28;5107019;27;42393;-78
2021/05/26 07:20:46;;;;;;;3.77;1.07;;;;;;;14.66;64.13;98688.94;5089083;28;39901;-78
2021/05/26 07:23:13;;;;;;;3.27;1.37;;;;;;;14.47;64.89;98688.72;5106734;28;42625;-78
2021/05/26 07:25:40;;;;;;;4.27;1.30;;;;;;;14.30;65.64;98666.09;5106564;27;43818;-78
2021/05/26 07:28:08;;;;;;;3.20;1.20;;;;;;;14.26;65.32;98675.28;5107842;27;42061;-78
2021/05/26 07:30:35;;;;;;;3.90;1.40;;;;;;;14.17;65.25;98678.69;5106609;28;39435;-78
2021/05/26 07:33:03;;;;;;;3.50;1.20;;;;;;;14.12;64.92;98675.53;5086931;28;40981;-78
2021/05/26 07:35:30;;;;;;;4.87;1.47;;;;;;;14.11;65.69;98674.69;5089139;28;41749;-78
2021/05/26 07:37:57;;;;;;;4.93;3.23;;;;;;;14.06;65.44;98668.06;5103632;28;41846;-78
2021/05/26 07:40:25;;;;;;;4.00;2.40;;;;;;;14.00;65.28;98666.72;5108075;27;40034;-77
2021/05/26 07:42:52;;;;;;;4.33;1.40;;;;;;;13.91;65.36;98668.31;5099256;28;41843;-78
2021/05/26 07:45:20;;;;;;;4.10;1.20;;;;;;;13.85;65.49;98673.25;5106747;28;42785;-79
2021/05/26 07:47:47;;;;;;;3.90;1.33;;;;;;;13.68;65.79;98663.94;5107003;27;43644;-77
2021/05/26 07:50:15;;;;;;;2.23;1.13;;;;;;;13.61;66.20;98663.56;5106848;27;40038;-77
2021/05/26 07:52:42;;;;;;;1.73;1.00;;;;;;;13.56;66.54;98654.25;5105852;28;41550;-77
2021/05/26 07:55:10;;;;;;;4.40;1.30;;;;;;;13.55;66.51;98639.25;5088034;28;42575;-78
2021/05/26 07:57:37;;;;;;;2.80;1.13;;;;;;;13.74;66.55;98665.25;5101747;28;41274;-77
2021/05/26 08:00:06;;;;;;;2.30;1.20;;;;;;;13.74;66.68;98660.78;5106454;27;40359;-77
2021/05/26 08:02:41;;;;;;;2.23;0.90;;;;;;;13.72;66.27;98662.75;5105418;28;40835;-77
2021/05/26 08:05:09;;;;;;;3.37;1.10;;;;;;;13.66;66.60;98663.22;5106633;27;42415;-77
2021/05/26 08:07:36;;;;;;;5.77;1.27;;;;;;;13.68;66.09;98663.94;5102670;28;43239;-77
2021/05/26 08:10:05;;;;;;;2.17;1.00;;;;;;;13.63;65.63;98660.78;5106425;27;42341;-78
2021/05/26 08:12:34;;;;;;;2.07;1.10;;;;;;;13.66;66.03;98653.41;5104806;28;40899;-77
2021/05/26 08:15:01;;;;;;;2.53;1.00;;;;;;;13.64;65.06;98665.13;5106551;27;43445;-77
2021/05/26 08:17:29;;;;;;;2.37;0.80;;;;;;;13.72;64.65;98659.25;5106150;27;42714;-77
2021/05/26 08:20:00;;;;;;;2.50;0.90;;;;;;;13.80;64.10;98657.66;5104907;28;40484;-78
2021/05/26 08:22:27;;;;;;;2.03;0.80;;;;;;;13.93;63.96;98668.19;5105294;28;41760;-77
2021/05/26 08:24:55;;;;;;;2.83;1.00;;;;;;;13.90;63.17;98661.28;5104117;28;42690;-78
2021/05/26 08:27:22;;;;;;;2.37;0.80;;;;;;;13.90;63.02;98663.94;5106994;27;42382;-77
2021/05/26 08:29:49;;;;;;;1.80;1.03;;;;;;;13.94;62.91;98656.56;5104934;28;38789;-77
2021/05/26 08:32:16;;;;;;;2.80;1.20;;;;;;;13.96;62.33;98666.13;5105117;27;44889;-77
2021/05/26 08:34:43;;;;;;;2.13;1.00;;;;;;;13.92;62.12;98654.03;5106177;27;42511;-78
2021/05/26 08:37:11;;;;;;;2.87;1.00;;;;;;;14.03;61.91;98677.13;5105854;27;44873;-78
2021/05/26 08:39:39;;;;;;;2.20;0.97;;;;;;;14.09;60.69;98665.16;5106441;27;40939;-78
2021/05/26 08:42:06;;;;;;;3.47;1.10;;;;;;;14.13;60.92;98661.25;5104225;28;41557;-79
2021/05/26 08:44:34;;;;;;;2.90;0.83;;;;;;;14.22;60.94;98660.50;5107910;27;20299;-79
2021/05/26 08:47:03;;;;;;;2.13;0.83;;;;;;;14.27;60.81;98674.31;5104778;28;41112;-78
2021/05/26 08:49:31;;;;;;;1.27;0.70;;;;;;;14.26;61.05;98667.28;5107119;27;40628;-77
2021/05/26 08:52:01;;;;;;;4.07;1.10;;;;;;;14.24;61.14;98664.75;5105204;28;40407;-80
2021/05/26 08:54:29;;;;;;;1.40;1.00;;;;;;;14.12;61.17;98656.91;5106601;27;42431;-79
2021/05/26 08:56:56;;;;;;;2.03;0.80;;;;;;;14.01;61.58;98661.28;5103145;28;41086;-79
2021/05/26 08:59:23;;;;;;;3.10;1.23;;;;;;;13.92;62.24;98656.69;5105607;28;39271;-78
2021/05/26 09:01:53;;;;;;;0.90;0.77;;;;;;;13.86;62.26;98656.31;5113090;28;41079;-79
2021/05/26 09:04:29;;;;;;;2.53;0.80;;;;;;;13.89;62.03;98651.59;5114470;27;42979;-78
2021/05/26 09:07:07;;;;;;;2.23;0.90;;;;;;;14.12;61.80;98651.56;5112415;27;42159;-80
2021/05/26 09:09:47;;;;;;;3.13;1.33;;;;;;;14.31;60.26;98650.00;5111515;28;39121;-79
2021/05/26 09:12:22;;;;;;;2.07;0.80;;;;;;;14.58;59.84;98657.59;5113559;27;43862;-79
2021/05/26 09:14:50;;;;;;;2.30;0.70;;;;;;;14.87;57.92;98678.31;5110191;27;43315;-78
2021/05/26 09:17:17;;;;;;;3.00;1.10;;;;;;;15.03;58.29;98652.06;5103515;28;41986;-80
2021/05/26 09:19:44;;;;;;;1.47;0.70;;;;;;;15.24;58.15;98660.91;5105723;27;39850;-79
2021/05/26 09:22:12;;;;;;;2.27;0.90;;;;;;;15.15;58.64;98645.69;5106131;27;41502;-80
2021/05/26 09:24:40;;;;;;;2.40;0.70;;;;;;;15.15;57.34;98659.03;5104256;28;42685;-78
2021/05/26 09:27:09;;;;;;;2.57;0.80;;;;;;;15.04;57.68;98659.09;5106336;27;42898;-80
2021/05/26 09:29:40;;;;;;;2.60;0.93;;;;;;;15.08;57.82;98649.88;5106934;27;39777;-80
2021/05/26 09:32:16;;;;;;;1.47;0.80;;;;;;;15.16;58.13;98652.72;5104938;28;42019;-81
2021/05/26 09:34:46;;;;;;;0.90;0.60;;;;;;;15.05;57.97;98639.44;5105947;27;42713;-81
2021/05/26 09:37:14;;;;;;;1.43;0.70;;;;;;;15.01;57.29;98646.84;5103976;28;41149;-79
2021/05/26 09:39:51;;;;;;;1.60;0.80;;;;;;;14.95;57.37;98663.38;5104515;28;39262;-80
2021/05/26 09:42:32;;;;;;;1.00;0.70;;;;;;;15.02;57.63;98658.38;5107142;28;42291;-80
2021/05/26 09:45:25;;;;;;;1.63;0.80;;;;;;;15.09;57.40;98651.53;5107849;28;41748;-79
2021/05/26 09:47:54;;;;;;;1.00;0.50;;;;;;;15.17;58.14;98646.41;5107967;27;42229;-80
2021/05/26 09:50:27;;;;;;;2.33;0.80;;;;;;;15.27;57.74;98636.66;5110110;27;41196;-79
2021/05/26 09:52:57;;;;;;;1.60;0.80;;;;;;;15.49;57.74;98653.50;5108273;27;41679;-80
2021/05/26 09:55:27;;;;;;;1.57;0.70;;;;;;;15.72;57.24;98639.03;5099722;28;42688;-80
2021/05/26 09:57:55;;;;;;;1.50;0.90;;;;;;;16.05;56.51;98641.44;5086952;28;41432;-80
2021/05/26 10:00:22;;;;;;;1.87;0.70;;;;;;;16.27;55.50;98652.88;5093179;28;39863;-78
2021/05/26 10:02:50;;;;;;;1.17;0.70;;;;;;;16.50;55.34;98643.66;5107382;28;41623;-80
2021/05/26 10:05:19;;;;;;;1.13;0.70;;;;;;;16.80;54.91;98640.06;5125815;27;41656;-80
2021/05/26 10:08:08;;;;;;;1.77;0.73;;;;;;;17.18;54.44;98641.88;5107550;27;43642;-81
2021/05/26 10:10:40;;;;;;;1.90;1.00;;;;;;;17.16;53.86;98646.53;5112203;27;40677;-80
2021/05/26 10:13:20;;;;;;;1.67;0.80;;;;;;;17.05;53.30;98644.00;5111197;28;41626;-80
2021/05/26 10:15:49;;;;;;;1.70;1.33;;;;;;;16.99;53.13;98641.88;5111704;28;43388;-81
2021/05/26 10:18:18;;;;;;;1.00;0.67;;;;;;;16.85;53.72;98635.13;5110854;28;41527;-78
2021/05/26 10:20:46;;;;;;;0.90;0.53;;;;;;;16.77;53.19;98643.84;5112346;27;39734;-77
2021/05/26 10:23:17;;;;;;;2.03;0.60;;;;;;;16.91;53.59;98628.38;5110682;28;40549;-78
2021/05/26 10:25:45;;;;;;;2.07;0.70;;;;;;;17.09;54.21;98629.34;5140516;27;43565;-76
2021/05/26 10:28:26;;;;;;;1.67;0.80;;;;;;;17.39;53.18;98628.31;5073094;28;41855;-74
2021/05/26 10:30:56;;;;;;;1.13;0.60;;;;;;;17.47;52.82;98615.88;5096028;28;39850;-78
2021/05/26 10:33:50;;;;;;;1.43;0.63;;;;;;;17.63;52.33;98619.78;5111858;27;41408;-79
2021/05/26 10:36:18;;;;;;;1.20;0.70;;;;;;;17.66;52.04;98630.25;5110038;27;43154;-79
2021/05/26 10:38:57;;;;;;;1.90;0.70;;;;;;;17.71;51.67;98609.22;5110025;28;41558;-78
2021/05/26 10:41:25;;;;;;;1.43;0.50;;;;;;;17.64;51.44;98573.31;5091855;28;41554;-77
2021/05/26 10:43:56;;;;;;;1.03;0.60;;;;;;;17.97;50.89;98629.00;5089740;28;41448;-78
2021/05/26 10:46:35;;;;;;;0.53;0.50;;;;;;;17.82;50.68;98630.47;5093043;28;42622;-77
2021/05/26 10:49:12;;;;;;;1.20;0.63;;;;;;;17.79;51.72;98628.94;5109668;28;42219;-77
2021/05/26 10:52:10;;;;;;;2.67;0.77;;;;;;;17.69;52.59;98625.44;5109877;27;38981;-78
2021/05/26 10:55:02;;;;;;;1.37;0.80;;;;;;;17.78;52.29;98618.38;5110162;28;41687;-76
2021/05/26 10:57:31;;;;;;;1.53;0.50;;;;;;;17.81;52.57;98624.25;5087195;28;43996;-78
2021/05/26 11:00:30;;;;;;;1.43;0.50;;;;;;;18.01;51.68;98613.47;5089886;28;42691;-78
2021/05/26 11:03:40;;;;;;;2.60;0.70;;;;;;;17.91;51.97;98624.25;5106890;28;41896;-77
2021/05/26 11:06:38;;;;;;;2.90;0.57;;;;;;;17.80;52.26;98617.22;5107969;27;41629;-77
2021/05/26 11:09:08;;;;;;;0.90;0.60;;;;;;;17.59;53.10;98606.69;5107411;27;43237;-79
2021/05/26 11:11:48;;;;;;;1.03;0.60;;;;;;;17.34;52.91;98625.22;5105483;28;42769;-77
2021/05/26 11:14:32;;;;;;;2.27;0.60;;;;;;;17.29;54.35;98616.78;5105648;28;39699;-76
2021/05/26 11:17:35;;;;;;;1.13;0.60;;;;;;;17.14;53.55;98619.06;5139971;27;41598;-78
2021/05/26 11:20:12;;;;;;;1.43;0.63;;;;;;;17.09;53.43;98610.59;5083784;28;42538;-76
2021/05/26 11:22:41;;;;;;;1.77;0.67;;;;;;;17.48;53.37;98620.25;5098278;28;42022;-75
2021/05/26 11:25:11;;;;;;;1.53;0.70;;;;;;;17.91;52.61;98613.53;5086430;28;39232;-75
2021/05/26 11:27:47;;;;;;;0.93;0.70;;;;;;;18.08;51.80;98620.75;5104628;28;42151;-78
2021/05/26 11:30:17;;;;;;;2.40;0.67;;;;;;;18.23;50.84;98618.44;5098953;28;42176;-77
2021/05/26 11:32:45;;;;;;;1.47;0.70;;;;;;;18.18;49.84;98626.91;5083819;28;42986;-76
2021/05/26 11:35:12;;;;;;;2.80;0.87;;;;;;;18.28;49.70;98633.09;5101304;28;40542;-79
2021/05/26 11:37:41;;;;;;;1.50;0.90;;;;;;;18.34;50.42;98630.78;5105070;28;41704;-80
2021/05/26 11:40:35;;;;;;;0.80;0.80;;;;;;;18.37;50.80;98625.13;5106497;27;42199;-78
2021/05/26 11:43:13;;;;;;;2.37;0.80;;;;;;;18.10;49.75;98628.66;5051729;28;41043;-77
2021/05/26 11:45:42;;;;;;;0.80;0.70;;;;;;;17.79;50.10;98626.25;5102456;28;39338;-79
2021/05/26 11:48:09;;;;;;;0.40;0.40;;;;;;;17.66;50.87;98614.19;5106477;28;40561;-81
2021/05/26 11:50:37;;;;;;;0.70;0.53;;;;;;;17.57;52.02;98611.34;5088273;28;42243;-77